Terminal Aerodrome Forecast
Issued by NWS

Home | Current Version | Previous Version | Text Only | Print | Product List | Glossary On
Versions: 1 2 3 4 5 6 7 8 9 10 11 12 13 14 15 16 17 18 19 20 21
000
FTUS42 KJAX 202300
TAFCRG
TAF
KCRG 202323Z 2100/2124 36008KT P6SM VCSH SCT015 BKN040 OVC100
      TEMPO 2100/2102 5SM RA BR BKN015
     FM210500 33005KT P6SM FEW025 SCT250
     FM211800 07005KT P6SM FEW250=

USA.gov is the U.S. government's official web portal to all federal, state and local government web resources and services.